Pagina principală
METAR-TAF:

METAR-TAF

Aeroporturi :

Chinandega, Nicaragua

Latitudine: 12-38N, longitudine: 087-08W, elevație: 53 m

Observații meteo curente

Raportul a fost făcut în urmă cu 11 ore și 46 de minute, la 23:00 UTC
Vânt 4 kt de la Sud
Temperatură 32°C
Umiditate 67%
Presiune 1008 hPa
Vizibilitate de 10 km sau mai mult
Nori puțini la o înălțime de 2500 picior, Cumulus congestus.

METAR: MNCH 272300Z 19004KT 9999 FEW025TCU 32/25 Q1008 TCU/N/NE

Ora: 04:46 (10:46 UTC)


TAF: lipsă

Observații și prognoze meteo pentru peste 4.000 de aeroporturi (rapoarte METAR și TAF).

Stațiile disponibile sunt reprezentate pe hartă prin puncte galbene și roșii.

Țineți indicatorul mouse-ului pe punctul dorit pentru a vedea denumirea stației.

Apoi, faceți clic pentru a vedea observațiile și prognozele meteorologice.

Pentru a schimba harta: Pentru mărire, faceți clic pe butoanele verzi cu cruce neagră; pentru micșorare, pe butonul verde cu o liniuță; pentru hărți învecinate, pe săgețile verzi.


METAR-TAF: